Adelaide, California
Current Conditions -  °F | °C
As of 11:53 PM on Friday 24 Oct 2014 (Local Time) from KPRB Reporting Station
Clear Clear  
Wind Chill: 53°   Ceiling: Unl
Heat Index: 53°   Visibility: 10mi
Dew Point: 49°   Wind: 5mph
Humidity: 86%   Direction: 100°E
Pressure: 30.01"   Gusts: NA
Location:  35.6618°N, 120.707°W
Report Text: KPRB 250653Z AUTO 10004KT 10SM CLR 12/09 A3001 RMK AO2 SLP157 T01170094 TSNO
Loading
Personal Weather Stations






























Interactive Weather Map
Tropical Storm Tracking
New forecast layout! Learn more

10-Day Weather Forecast

Advertisements
Track Severe Weather on mobile